Time;durP1;ratioP1;P1;durP2;ratioP2;P2;SDS_P1;SDS_P2;PMS_P1;PMS_P2;Temp;Humidity;BMP_temperature;BMP_pressure;BME280_temperature;BME280_humidity;BME280_pressure;Samples;Min_cycle;Max_cycle;Signal;HPM_P1;HPM_P2
2022/12/08 00:02:07;;;;;;;54.67;24.02;;;4.30;99.90;;;;;;4222275;28;20070;-82
2022/12/08 00:04:27;;;;;;;23.60;21.20;;;4.30;99.90;;;;;;4222503;28;20047;-83
2022/12/08 00:09:29;;;;;;;45.38;25.73;;;4.50;99.90;;;;;;4230555;28;20110;-82
2022/12/08 00:12:03;;;;;;;23.90;21.08;;;4.50;99.90;;;;;;4225989;28;20065;-82
2022/12/08 00:14:25;;;;;;;25.70;23.13;;;4.50;99.90;;;;;;4215354;28;20074;-82
2022/12/08 00:16:45;;;;;;;23.88;21.38;;;4.60;99.90;;;;;;4218957;28;20059;-82
2022/12/08 00:19:05;;;;;;;25.67;23.05;;;4.70;99.90;;;;;;4231720;28;20055;-82
2022/12/08 00:21:25;;;;;;;51.28;28.30;;;4.60;99.90;;;;;;4227120;28;20043;-82
2022/12/08 00:23:45;;;;;;;100.15;31.38;;;4.60;99.90;;;;;;4227706;28;20298;-82
2022/12/08 00:26:06;;;;;;;59.33;25.90;;;4.50;99.90;;;;;;4218394;28;20145;-82
2022/12/08 00:28:26;;;;;;;271.13;37.25;;;4.40;99.90;;;;;;4229843;28;20086;-83
2022/12/08 00:30:46;;;;;;;178.18;33.22;;;4.30;99.90;;;;;;4213859;28;20089;-82
2022/12/08 00:33:05;;;;;;;294.40;33.15;;;4.40;99.90;;;;;;4233425;28;20080;-82
2022/12/08 00:35:25;;;;;;;212.30;29.23;;;4.30;99.90;;;;;;4212527;28;20099;-82
2022/12/08 00:37:45;;;;;;;348.23;34.55;;;4.20;99.90;;;;;;4230631;28;20090;-82
2022/12/08 00:40:06;;;;;;;280.70;34.50;;;4.20;99.90;;;;;;4228214;28;20066;-82
2022/12/08 00:42:26;;;;;;;340.13;36.78;;;4.20;99.90;;;;;;4218673;28;20386;-83
2022/12/08 00:44:46;;;;;;;246.05;29.38;;;4.10;99.90;;;;;;4213852;28;20248;-82
2022/12/08 00:47:06;;;;;;;300.10;31.17;;;4.10;99.90;;;;;;4222945;28;20051;-83
2022/12/08 00:49:26;;;;;;;142.55;26.90;;;4.10;99.90;;;;;;4217796;28;20054;-83
2022/12/08 00:51:46;;;;;;;197.27;26.75;;;4.10;99.90;;;;;;4229925;28;20064;-82
2022/12/08 00:54:06;;;;;;;157.93;26.33;;;4.10;99.90;;;;;;4217062;28;20043;-83
2022/12/08 00:56:26;;;;;;;189.50;27.38;;;4.10;99.90;;;;;;4215392;28;20074;-82
2022/12/08 00:58:46;;;;;;;165.65;23.77;;;4.10;99.90;;;;;;4221724;28;20397;-82
2022/12/08 01:01:10;;;;;;;80.30;21.60;;;4.00;99.90;;;;;;4227746;28;20055;-82
2022/12/08 01:03:30;;;;;;;34.40;18.90;;;4.00;99.90;;;;;;4232075;28;20085;-82
2022/12/08 01:05:50;;;;;;;162.50;24.25;;;4.10;99.90;;;;;;4231840;28;20093;-83
2022/12/08 01:08:11;;;;;;;171.38;23.83;;;4.10;99.90;;;;;;4217432;28;20085;-83
2022/12/08 01:10:33;;;;;;;107.20;23.13;;;4.10;99.90;;;;;;4222210;28;20055;-83
2022/12/08 01:12:53;;;;;;;112.43;24.85;;;4.10;99.90;;;;;;4219666;28;20406;-82
2022/12/08 01:15:13;;;;;;;55.40;19.55;;;4.10;99.90;;;;;;4216581;28;20078;-82
2022/12/08 01:17:33;;;;;;;223.57;24.33;;;4.30;99.90;;;;;;4229868;28;20061;-82
2022/12/08 01:19:52;;;;;;;128.90;21.15;;;4.20;99.90;;;;;;4226334;28;20051;-82
2022/12/08 01:22:12;;;;;;;31.65;17.77;;;4.10;99.90;;;;;;4226088;28;20436;-82
2022/12/08 01:24:32;;;;;;;138.98;21.42;;;4.10;99.90;;;;;;4215530;28;20090;-82
2022/12/08 01:26:52;;;;;;;33.25;16.23;;;4.20;99.90;;;;;;4215144;28;20404;-82
2022/12/08 01:29:12;;;;;;;54.58;17.77;;;4.10;99.90;;;;;;4213868;28;20070;-82
2022/12/08 01:31:32;;;;;;;73.82;17.98;;;4.20;99.90;;;;;;4232041;28;20385;-83
2022/12/08 01:33:52;;;;;;;102.53;17.92;;;4.20;99.90;;;;;;4217626;28;20157;-83
2022/12/08 01:36:25;;;;;;;91.75;19.75;;;4.20;99.90;;;;;;4214587;28;20085;-82
2022/12/08 01:38:45;;;;;;;18.02;16.52;;;4.20;99.90;;;;;;4217415;28;20085;-82
2022/12/08 01:41:05;;;;;;;36.10;17.98;;;4.20;99.90;;;;;;4225177;28;20081;-82
2022/12/08 01:43:44;;;;;;;22.00;15.82;;;4.20;99.90;;;;;;4211344;28;20051;-82
2022/12/08 01:46:04;;;;;;;53.78;26.20;;;4.20;99.90;;;;;;4231901;28;20366;-82
2022/12/08 01:48:26;;;;;;;32.15;22.58;;;4.20;99.90;;;;;;4231175;28;20050;-82
2022/12/08 01:50:47;;;;;;;22.67;20.35;;;4.20;99.90;;;;;;4217761;28;20051;-82
2022/12/08 01:53:16;;;;;;;182.45;30.70;;;4.40;99.90;;;;;;4233789;28;20046;-83
2022/12/08 01:55:43;;;;;;;21.85;19.70;;;4.40;99.90;;;;;;4223436;28;20074;-82
2022/12/08 01:58:12;;;;;;;21.92;17.20;;;4.30;99.90;;;;;;4228772;28;20075;-82
2022/12/08 02:00:32;;;;;;;25.48;19.30;;;4.30;99.90;;;;;;4233906;28;20051;-85
2022/12/08 02:03:02;;;;;;;139.07;21.48;;;4.30;99.90;;;;;;4220719;28;20078;-85
2022/12/08 02:05:26;;;;;;;386.75;31.05;;;4.30;99.90;;;;;;4225872;28;20046;-85
2022/12/08 02:07:47;;;;;;;310.50;26.60;;;4.20;99.90;;;;;;4231086;28;20057;-85
2022/12/08 02:10:13;;;;;;;212.82;21.15;;;4.00;99.90;;;;;;4235840;28;20055;-85
2022/12/08 02:12:32;;;;;;;42.65;16.42;;;4.00;99.90;;;;;;4229002;28;20042;-85
2022/12/08 02:14:52;;;;;;;273.55;24.42;;;4.10;99.90;;;;;;4232063;28;20047;-85
2022/12/08 02:17:49;;;;;;;205.77;20.83;;;4.00;99.90;;;;;;4228063;28;20051;-85
2022/12/08 02:20:18;;;;;;;144.23;25.27;;;4.00;99.90;;;;;;4223899;28;20075;-85
2022/12/08 02:22:50;;;;;;;358.45;32.10;;;3.90;99.90;;;;;;4226508;28;20073;-85
2022/12/08 02:25:53;;;;;;;348.53;34.90;;;3.90;99.90;;;;;;4218666;28;20083;-85
2022/12/08 02:28:56;;;;;;;119.63;22.90;;;3.90;99.90;;;;;;4220513;28;20039;-85
2022/12/08 02:31:53;;;;;;;19.20;17.50;;;3.90;99.90;;;;;;4234858;28;20050;-85
2022/12/08 02:34:16;;;;;;;14.23;13.15;;;4.00;99.90;;;;;;4233290;28;20065;-85
2022/12/08 02:36:51;;;;;;;17.58;16.20;;;4.20;99.90;;;;;;4219706;28;20124;-85
2022/12/08 02:39:55;;;;;;;71.07;18.33;;;4.10;99.90;;;;;;4223829;28;20050;-85
2022/12/08 02:42:21;;;;;;;395.00;30.45;;;4.10;99.90;;;;;;4139133;28;20049;-85
2022/12/08 02:44:56;;;;;;;189.90;22.58;;;4.00;99.90;;;;;;4131842;28;20064;-85
2022/12/08 02:47:22;;;;;;;300.42;25.13;;;4.00;99.90;;;;;;4141778;28;20073;-85
2022/12/08 02:49:42;;;;;;;152.75;20.92;;;3.90;99.90;;;;;;4140501;28;20061;-85
2022/12/08 02:52:11;;;;;;;92.25;17.85;;;4.00;99.90;;;;;;4140773;28;20441;-85
2022/12/08 02:54:32;;;;;;;211.63;21.50;;;3.90;99.90;;;;;;4140770;28;20094;-85
2022/12/08 02:57:11;;;;;;;93.07;18.98;;;3.90;99.90;;;;;;4135087;28;20065;-85
2022/12/08 03:00:07;;;;;;;77.15;16.92;;;4.00;99.90;;;;;;4141904;28;20065;-85
2022/12/08 03:02:33;;;;;;;66.13;18.38;;;4.00;99.90;;;;;;4142075;28;20345;-85
2022/12/08 03:05:00;;;;;;;151.88;21.10;;;4.10;99.90;;;;;;4126008;28;20041;-85
2022/12/08 03:07:34;;;;;;;317.05;26.33;;;4.00;99.90;;;;;;4126048;28;20057;-85
2022/12/08 03:09:59;;;;;;;75.30;17.20;;;3.90;99.90;;;;;;4139860;28;20037;-85
2022/12/08 03:12:29;;;;;;;321.20;26.48;;;3.90;99.90;;;;;;4140267;28;20447;-85
2022/12/08 03:14:58;;;;;;;233.40;24.45;;;3.90;99.90;;;;;;4127417;28;20080;-85
2022/12/08 03:17:23;;;;;;;35.38;17.00;;;3.90;99.90;;;;;;4219486;28;20078;-85
2022/12/08 03:19:47;;;;;;;182.27;23.88;;;3.90;99.90;;;;;;4230743;28;20361;-85
2022/12/08 03:22:07;;;;;;;204.10;24.40;;;3.90;99.90;;;;;;4228999;28;20097;-85
2022/12/08 03:24:34;;;;;;;42.95;16.98;;;4.00;99.90;;;;;;4230532;28;20047;-85
2022/12/08 03:27:26;;;;;;;71.20;19.52;;;3.90;99.90;;;;;;4226521;28;20073;-85
2022/12/08 03:29:49;;;;;;;167.30;20.98;;;3.90;99.90;;;;;;4230218;28;20089;-85
2022/12/08 03:32:46;;;;;;;241.77;22.30;;;4.00;99.90;;;;;;4213015;28;20104;-85
2022/12/08 03:35:18;;;;;;;198.93;20.48;;;4.00;99.90;;;;;;4213471;28;20067;-85
2022/12/08 03:37:40;;;;;;;70.50;15.18;;;3.90;99.90;;;;;;4222284;28;20047;-85
2022/12/08 03:40:00;;;;;;;17.50;15.93;;;4.00;99.90;;;;;;4228466;28;20239;-85
2022/12/08 03:42:20;;;;;;;70.95;16.95;;;4.10;99.90;;;;;;4217492;28;20361;-85
2022/12/08 03:44:40;;;;;;;63.05;20.67;;;4.10;99.90;;;;;;4217062;28;20412;-85
2022/12/08 03:47:00;;;;;;;277.67;24.98;;;4.00;99.90;;;;;;4222665;28;20050;-85
2022/12/08 03:49:20;;;;;;;62.30;22.20;;;3.90;99.90;;;;;;4223184;28;20377;-85
2022/12/08 03:51:39;;;;;;;25.83;18.85;;;3.80;99.90;;;;;;4230601;28;20277;-85
2022/12/08 03:53:59;;;;;;;173.48;26.98;;;3.90;99.90;;;;;;4212130;28;20210;-85
2022/12/08 03:56:30;;;;;;;232.15;26.45;;;3.80;99.90;;;;;;4212455;28;20052;-85
2022/12/08 03:58:50;;;;;;;74.97;18.70;;;3.90;99.90;;;;;;4236175;28;20260;-85
2022/12/08 04:01:11;;;;;;;241.20;25.45;;;3.90;99.90;;;;;;4221312;28;20101;-85
2022/12/08 04:03:31;;;;;;;342.92;30.55;;;3.90;99.90;;;;;;4219499;28;20128;-85
2022/12/08 04:05:51;;;;;;;469.25;36.85;;;3.90;99.90;;;;;;4233023;28;20047;-85
2022/12/08 04:08:11;;;;;;;202.55;24.15;;;3.80;99.90;;;;;;4219623;28;20059;-85
2022/12/08 04:10:32;;;;;;;135.23;24.40;;;3.80;99.90;;;;;;4227340;28;20047;-85
2022/12/08 04:12:52;;;;;;;260.92;27.73;;;3.80;99.90;;;;;;4224704;28;20101;-85
2022/12/08 04:15:12;;;;;;;32.67;21.63;;;3.80;99.90;;;;;;4231498;28;20092;-85
2022/12/08 04:17:32;;;;;;;196.35;26.23;;;3.80;99.90;;;;;;4219858;28;20054;-85
2022/12/08 04:19:51;;;;;;;232.27;25.42;;;3.80;99.90;;;;;;4234382;28;20121;-85
2022/12/08 04:22:11;;;;;;;239.55;23.67;;;3.80;99.90;;;;;;4227326;28;20357;-85
2022/12/08 04:24:31;;;;;;;337.83;27.33;;;3.80;99.90;;;;;;4227738;28;20354;-85
2022/12/08 04:26:50;;;;;;;370.13;28.38;;;3.80;99.90;;;;;;4229622;28;20251;-85
2022/12/08 04:29:10;;;;;;;219.00;21.15;;;3.80;99.90;;;;;;4227553;28;20235;-85
2022/12/08 04:31:30;;;;;;;219.18;21.58;;;3.80;99.90;;;;;;4214250;28;20047;-85
2022/12/08 04:33:50;;;;;;;53.67;12.55;;;3.80;99.90;;;;;;4230346;28;20070;-85
2022/12/08 04:36:10;;;;;;;17.52;12.93;;;3.80;99.90;;;;;;4212093;28;20071;-85
2022/12/08 04:38:30;;;;;;;173.93;17.88;;;3.90;99.90;;;;;;4219359;28;20070;-85
2022/12/08 04:40:50;;;;;;;43.97;14.05;;;3.90;99.90;;;;;;4231276;28;20070;-85
2022/12/08 04:43:10;;;;;;;24.35;11.95;;;3.80;99.90;;;;;;4232196;28;20070;-85
2022/12/08 04:45:30;;;;;;;12.27;11.48;;;3.90;99.90;;;;;;4222332;28;20047;-85
2022/12/08 04:47:49;;;;;;;14.05;13.05;;;4.00;99.90;;;;;;4229362;28;20066;-85
2022/12/08 04:50:09;;;;;;;11.73;11.13;;;4.00;99.90;;;;;;4216734;28;20070;-85
2022/12/08 04:52:29;;;;;;;19.95;18.15;;;4.00;99.90;;;;;;4216106;28;20125;-85
2022/12/08 04:54:49;;;;;;;17.15;15.77;;;3.90;99.90;;;;;;4226791;28;20080;-85
2022/12/08 04:57:08;;;;;;;17.23;15.60;;;3.80;99.90;;;;;;4227873;28;20062;-85
2022/12/08 04:59:28;;;;;;;14.35;13.45;;;3.80;99.90;;;;;;4230926;28;20046;-85
2022/12/08 05:01:48;;;;;;;15.13;14.02;;;3.90;99.90;;;;;;4232835;28;20050;-85
2022/12/08 05:04:08;;;;;;;13.35;12.40;;;4.00;99.90;;;;;;4230387;28;20050;-85
2022/12/08 05:06:28;;;;;;;14.32;13.15;;;4.00;99.90;;;;;;4221849;28;20043;-85
2022/12/08 05:08:47;;;;;;;15.80;14.85;;;4.00;99.90;;;;;;4230581;28;20058;-85
2022/12/08 05:11:09;;;;;;;13.88;12.98;;;4.00;99.90;;;;;;4226458;28;20070;-85
2022/12/08 05:13:29;;;;;;;13.13;12.52;;;3.90;99.90;;;;;;4228612;28;20043;-85
2022/12/08 05:15:49;;;;;;;14.27;13.23;;;4.00;99.90;;;;;;4213263;28;20239;-85
2022/12/08 05:18:10;;;;;;;15.07;13.88;;;4.00;99.90;;;;;;4214993;28;20378;-85
2022/12/08 05:20:30;;;;;;;37.72;17.02;;;4.10;99.90;;;;;;4220527;28;20269;-85
2022/12/08 05:22:49;;;;;;;79.85;17.50;;;4.00;99.90;;;;;;4218016;28;20074;-85
2022/12/08 05:25:09;;;;;;;118.60;19.80;;;4.00;99.90;;;;;;4219369;28;20065;-85
2022/12/08 05:27:29;;;;;;;18.40;15.00;;;4.00;99.90;;;;;;4232113;28;20047;-85
2022/12/08 05:29:49;;;;;;;155.02;20.38;;;4.00;99.90;;;;;;4230915;28;20046;-85
2022/12/08 05:32:09;;;;;;;12.15;11.57;;;4.00;99.90;;;;;;4231690;28;20081;-85
2022/12/08 05:34:29;;;;;;;12.88;11.95;;;4.00;99.90;;;;;;4228163;28;20108;-85
2022/12/08 05:36:49;;;;;;;13.70;12.38;;;4.10;99.90;;;;;;4218984;28;20063;-85
2022/12/08 05:39:12;;;;;;;156.15;18.38;;;4.10;99.90;;;;;;4215207;28;20091;-85
2022/12/08 05:41:32;;;;;;;140.80;17.92;;;4.00;99.90;;;;;;4213063;28;20051;-85
2022/12/08 05:43:52;;;;;;;409.25;25.55;;;3.90;99.90;;;;;;4234252;28;20422;-85
2022/12/08 05:46:13;;;;;;;433.17;31.25;;;3.80;99.90;;;;;;4225554;28;20327;-85
2022/12/08 05:48:33;;;;;;;13.18;12.38;;;3.70;99.90;;;;;;4220969;28;20085;-85
2022/12/08 05:50:53;;;;;;;24.15;13.27;;;3.80;99.90;;;;;;4231087;28;20247;-85
2022/12/08 05:53:14;;;;;;;172.27;17.50;;;3.90;99.90;;;;;;4232673;28;20051;-85
2022/12/08 05:55:33;;;;;;;236.35;19.80;;;3.90;99.90;;;;;;4220293;28;20118;-85
2022/12/08 05:57:53;;;;;;;307.15;23.30;;;3.80;99.90;;;;;;4211386;28;20086;-85
2022/12/08 06:00:13;;;;;;;351.95;24.35;;;3.80;99.90;;;;;;4231317;28;20117;-85
2022/12/08 06:02:34;;;;;;;15.98;11.65;;;3.70;99.90;;;;;;4233683;28;20082;-85
2022/12/08 06:04:54;;;;;;;146.55;16.60;;;3.70;99.90;;;;;;4218749;28;20063;-85
2022/12/08 06:07:14;;;;;;;142.38;15.32;;;3.70;99.90;;;;;;4234250;28;20086;-85
2022/12/08 06:09:35;;;;;;;124.18;15.48;;;3.70;99.90;;;;;;4217320;28;20085;-85
2022/12/08 06:11:55;;;;;;;225.30;32.28;;;3.80;99.90;;;;;;4214034;28;20052;-85
2022/12/08 06:14:14;;;;;;;136.20;30.92;;;3.70;99.90;;;;;;4230594;28;20035;-85
2022/12/08 06:16:34;;;;;;;242.75;24.88;;;3.70;99.90;;;;;;4216938;28;20109;-85
2022/12/08 06:18:55;;;;;;;21.35;14.27;;;3.60;99.90;;;;;;4218757;28;20046;-85
2022/12/08 06:21:16;;;;;;;125.63;20.27;;;3.60;99.90;;;;;;4214870;28;20086;-85
2022/12/08 06:23:36;;;;;;;214.77;22.77;;;3.70;99.90;;;;;;4229184;28;20082;-85
2022/12/08 06:26:03;;;;;;;70.38;18.13;;;3.70;99.90;;;;;;4220166;28;20078;-85
2022/12/08 06:28:23;;;;;;;64.40;15.63;;;3.60;99.90;;;;;;4231620;28;20038;-85
2022/12/08 06:30:43;;;;;;;251.57;23.75;;;3.70;99.90;;;;;;4218859;28;20106;-85
2022/12/08 06:33:02;;;;;;;28.52;16.73;;;3.50;99.90;;;;;;4230084;28;20239;-85
2022/12/08 06:35:22;;;;;;;29.15;15.55;;;3.50;99.90;;;;;;4218602;28;20063;-85
2022/12/08 06:37:42;;;;;;;16.15;14.88;;;3.60;99.90;;;;;;4232752;28;20362;-85
2022/12/08 06:40:02;;;;;;;16.00;14.55;;;3.60;99.90;;;;;;4226937;28;20046;-85
2022/12/08 06:45:00;;;;;;;33.45;19.30;;;3.70;99.90;;;;;;4229617;28;20051;-85
2022/12/08 06:47:21;;;;;;;92.75;23.05;;;3.70;99.90;;;;;;4234720;28;20042;-86
2022/12/08 06:49:45;;;;;;;47.90;25.40;;;3.70;99.90;;;;;;4232455;28;20050;-86
2022/12/08 06:52:05;;;;;;;84.53;22.02;;;3.70;99.90;;;;;;4227859;28;20291;-86
2022/12/08 06:54:25;;;;;;;55.03;19.55;;;3.70;99.90;;;;;;4232698;28;20066;-86
2022/12/08 06:56:45;;;;;;;142.27;22.42;;;3.70;99.90;;;;;;4217470;28;20088;-86
2022/12/08 06:59:05;;;;;;;14.55;13.18;;;3.70;99.90;;;;;;4232985;28;20099;-86
2022/12/08 07:01:25;;;;;;;15.38;14.23;;;3.80;99.90;;;;;;4215807;28;20047;-86
2022/12/08 07:03:46;;;;;;;35.63;17.30;;;3.90;99.90;;;;;;4232039;28;20300;-85
2022/12/08 07:06:06;;;;;;;57.45;21.10;;;3.90;99.90;;;;;;4225537;28;20382;-86
2022/12/08 07:08:26;;;;;;;18.80;16.95;;;3.80;99.90;;;;;;4230742;28;20086;-86
2022/12/08 07:10:46;;;;;;;21.02;17.85;;;3.90;99.90;;;;;;4233837;28;20134;-86
2022/12/08 07:13:06;;;;;;;27.10;20.60;;;3.90;99.90;;;;;;4230902;28;20059;-86
2022/12/08 07:15:26;;;;;;;21.13;19.15;;;3.90;99.90;;;;;;4223189;28;20055;-86
2022/12/08 07:17:47;;;;;;;21.02;19.13;;;3.90;99.90;;;;;;4219496;28;20046;-86
2022/12/08 07:20:07;;;;;;;17.13;15.88;;;3.90;99.90;;;;;;4225850;28;20059;-86
2022/12/08 07:22:27;;;;;;;16.50;15.30;;;4.00;99.90;;;;;;4229213;28;20050;-86
2022/12/08 07:24:47;;;;;;;15.40;14.23;;;4.00;99.90;;;;;;4227134;28;20047;-85
2022/12/08 07:27:07;;;;;;;41.38;18.33;;;4.10;99.90;;;;;;4229269;28;20370;-85
2022/12/08 07:29:26;;;;;;;48.85;22.30;;;4.30;99.90;;;;;;4232827;28;20054;-84
2022/12/08 07:31:46;;;;;;;29.33;23.90;;;4.20;99.90;;;;;;4230873;28;20055;-85
2022/12/08 07:34:06;;;;;;;86.90;29.42;;;4.20;99.90;;;;;;4228234;28;20059;-87
2022/12/08 07:36:26;;;;;;;39.45;28.17;;;4.20;99.90;;;;;;4215658;28;20455;-87
2022/12/08 07:38:47;;;;;;;47.55;31.52;;;4.30;99.90;;;;;;4219941;28;20054;-87
2022/12/08 07:41:20;;;;;;;41.40;27.98;;;4.30;99.90;;;;;;4217174;28;20298;-87
2022/12/08 07:43:43;;;;;;;176.73;33.13;;;4.20;99.90;;;;;;4217624;28;20047;-87
2022/12/08 07:46:03;;;;;;;74.22;38.15;;;4.30;99.90;;;;;;4230535;28;20133;-87
2022/12/08 07:48:23;;;;;;;120.70;37.05;;;4.30;99.90;;;;;;4218208;28;20047;-88
2022/12/08 07:50:43;;;;;;;132.75;72.53;;;4.30;99.90;;;;;;4219756;28;20051;-87
2022/12/08 07:53:03;;;;;;;778.78;65.20;;;4.30;99.90;;;;;;4232621;28;20067;-87
2022/12/08 07:55:22;;;;;;;47.83;29.48;;;4.20;99.90;;;;;;4215618;28;20043;-87
2022/12/08 07:57:43;;;;;;;46.35;30.80;;;4.20;99.90;;;;;;4219278;28;20039;-87
2022/12/08 08:00:04;;;;;;;28.48;25.38;;;4.30;99.90;;;;;;4228503;28;20096;-87
2022/12/08 08:02:24;;;;;;;44.25;32.30;;;4.40;99.90;;;;;;4216096;28;20043;-87
2022/12/08 08:04:49;;;;;;;169.13;46.08;;;4.50;99.90;;;;;;4233487;28;20086;-87
2022/12/08 08:07:09;;;;;;;308.58;44.90;;;4.60;99.90;;;;;;4220406;28;20047;-87
2022/12/08 08:09:29;;;;;;;214.73;49.20;;;4.50;99.90;;;;;;4229993;28;20047;-87
2022/12/08 08:11:50;;;;;;;129.52;36.85;;;4.50;99.90;;;;;;4231352;28;20054;-87
2022/12/08 08:14:30;;;;;;;83.28;36.47;;;4.50;99.90;;;;;;4222994;28;20098;-87
2022/12/08 08:16:50;;;;;;;46.55;30.33;;;4.60;99.90;;;;;;4226648;28;20074;-87
2022/12/08 08:19:10;;;;;;;62.58;39.70;;;4.70;99.90;;;;;;4228805;28;20108;-87
2022/12/08 08:21:29;;;;;;;49.95;36.60;;;4.70;99.90;;;;;;4221256;28;20047;-87
2022/12/08 08:24:05;;;;;;;60.25;41.65;;;4.60;99.90;;;;;;4226574;28;20039;-87
2022/12/08 08:26:25;;;;;;;69.45;47.17;;;4.80;99.90;;;;;;4215641;28;20417;-87
2022/12/08 08:28:45;;;;;;;173.70;54.05;;;4.80;99.90;;;;;;4215296;28;20038;-87
2022/12/08 08:31:06;;;;;;;71.72;45.33;;;4.90;99.90;;;;;;4222852;28;20051;-87
2022/12/08 08:33:26;;;;;;;65.88;40.40;;;4.80;99.90;;;;;;4215144;28;20578;-87
2022/12/08 08:35:47;;;;;;;63.60;41.13;;;4.90;99.90;;;;;;4230163;28;20059;-87
2022/12/08 08:38:07;;;;;;;335.33;46.70;;;4.90;99.90;;;;;;4229396;28;20039;-87
2022/12/08 08:40:27;;;;;;;133.07;33.60;;;5.00;99.90;;;;;;4214436;28;20047;-87
2022/12/08 08:42:47;;;;;;;131.63;35.50;;;5.00;99.90;;;;;;4229133;28;20050;-87
2022/12/08 08:45:07;;;;;;;72.90;37.22;;;4.90;99.90;;;;;;4227647;28;20044;-87
2022/12/08 08:47:27;;;;;;;50.80;36.17;;;5.00;99.90;;;;;;4215047;28;20055;-87
2022/12/08 08:49:47;;;;;;;41.28;33.05;;;5.10;99.90;;;;;;4217042;28;20081;-86
2022/12/08 08:52:07;;;;;;;50.15;33.30;;;5.10;99.90;;;;;;4216112;28;20043;-87
2022/12/08 08:54:30;;;;;;;44.00;35.42;;;5.30;99.90;;;;;;4231462;28;20062;-87
2022/12/08 08:56:51;;;;;;;46.28;36.70;;;5.20;99.90;;;;;;4217940;28;20062;-87
2022/12/08 08:59:11;;;;;;;36.28;28.80;;;5.30;99.90;;;;;;4218086;28;20050;-87
2022/12/08 09:01:31;;;;;;;29.20;26.25;;;5.30;99.90;;;;;;4217507;28;20416;-87
2022/12/08 09:03:51;;;;;;;29.63;26.42;;;5.40;99.90;;;;;;4220450;28;20124;-87
2022/12/08 09:06:12;;;;;;;27.58;24.88;;;5.40;99.90;;;;;;4230955;28;20071;-87
2022/12/08 09:08:32;;;;;;;25.02;22.67;;;5.40;99.90;;;;;;4218105;28;20082;-87
2022/12/08 09:10:53;;;;;;;25.45;22.88;;;5.40;99.90;;;;;;4221033;28;20074;-87
2022/12/08 09:13:13;;;;;;;26.95;24.15;;;5.50;99.90;;;;;;4215282;28;20040;-87
2022/12/08 09:15:33;;;;;;;23.58;21.08;;;5.60;99.90;;;;;;4219434;28;20054;-87
2022/12/08 09:17:53;;;;;;;20.58;18.83;;;5.60;99.90;;;;;;4214062;28;20082;-87
2022/12/08 09:20:14;;;;;;;18.88;16.33;;;5.70;99.90;;;;;;4230593;28;20047;-87
2022/12/08 09:22:34;;;;;;;19.17;17.33;;;5.70;99.90;;;;;;4225454;28;20078;-87
2022/12/08 09:24:53;;;;;;;19.02;17.45;;;5.70;99.90;;;;;;4226427;28;20046;-87
2022/12/08 09:27:13;;;;;;;19.90;18.00;;;5.90;99.90;;;;;;4216365;28;20109;-87
2022/12/08 09:29:33;;;;;;;18.00;16.73;;;6.00;99.90;;;;;;4214866;28;20052;-87
2022/12/08 09:31:55;;;;;;;15.45;14.38;;;6.00;99.90;;;;;;4219413;28;20046;-87
2022/12/08 09:34:16;;;;;;;16.88;15.20;;;6.10;99.90;;;;;;4230914;28;20231;-87
2022/12/08 09:36:36;;;;;;;14.48;13.60;;;6.00;99.90;;;;;;4230685;28;20077;-87
2022/12/08 09:38:55;;;;;;;22.60;20.27;;;6.20;99.90;;;;;;4232304;28;20227;-87
2022/12/08 09:41:36;;;;;;;22.65;20.27;;;6.20;99.90;;;;;;4219559;28;20124;-87
2022/12/08 09:44:31;;;;;;;21.52;15.52;;;6.30;99.90;;;;;;4231726;28;20290;-87
2022/12/08 09:46:53;;;;;;;43.13;28.13;;;6.60;99.90;;;;;;4172910;28;20045;-87
2022/12/08 09:49:17;;;;;;;25.60;21.23;;;6.70;99.90;;;;;;4158385;28;20084;-87
2022/12/08 09:51:40;;;;;;;22.67;20.20;;;6.70;99.90;;;;;;4159004;28;20061;-87
2022/12/08 09:54:17;;;;;;;28.52;18.58;;;6.80;99.90;;;;;;4172236;28;20232;-87
2022/12/08 09:56:38;;;;;;;28.70;20.90;;;6.90;99.90;;;;;;4173102;28;20232;-87
2022/12/08 09:59:16;;;;;;;48.10;34.13;;;7.00;99.90;;;;;;4172783;28;20039;-87
2022/12/08 10:01:40;;;;;;;21.73;19.23;;;7.10;99.90;;;;;;4172411;28;20095;-87
2022/12/08 10:04:01;;;;;;;18.85;16.88;;;7.00;99.90;;;;;;4172208;28;20399;-87
2022/12/08 10:06:44;;;;;;;18.42;16.73;;;7.00;99.90;;;;;;4173020;28;20071;-87
2022/12/08 10:09:34;;;;;;;19.83;15.30;;;7.10;99.90;;;;;;4172479;28;20395;-87
2022/12/08 10:12:24;;;;;;;17.48;13.68;;;7.30;99.90;;;;;;4158075;28;20093;-87
2022/12/08 10:14:57;;;;;;;20.42;18.08;;;7.40;99.90;;;;;;4175191;28;20109;-87
2022/12/08 10:17:25;;;;;;;19.10;17.23;;;7.60;99.90;;;;;;4159090;28;20427;-87
2022/12/08 10:19:46;;;;;;;15.27;14.00;;;7.70;99.90;;;;;;4172215;28;20043;-87
2022/12/08 10:22:20;;;;;;;14.50;13.32;;;7.60;99.90;;;;;;4172052;28;20052;-87
2022/12/08 10:24:48;;;;;;;15.00;13.50;;;7.60;99.90;;;;;;4220093;28;20051;-87
2022/12/08 10:27:11;;;;;;;17.15;15.50;;;7.70;99.90;;;;;;4219415;28;20219;-87
2022/12/08 10:29:32;;;;;;;16.67;15.25;;;7.70;99.90;;;;;;4230571;28;20050;-87
2022/12/08 10:31:52;;;;;;;16.85;12.55;;;7.70;99.90;;;;;;4213359;28;20058;-87
2022/12/08 10:34:21;;;;;;;16.38;14.68;;;7.80;99.90;;;;;;4231170;28;20222;-87
2022/12/08 10:36:52;;;;;;;19.77;16.23;;;7.90;99.90;;;;;;4227675;28;20438;-87
2022/12/08 10:39:32;;;;;;;18.48;16.67;;;8.00;99.90;;;;;;4231449;28;20052;-88
2022/12/08 10:41:52;;;;;;;13.02;12.05;;;7.90;99.90;;;;;;4212754;28;20094;-87
2022/12/08 10:44:12;;;;;;;12.73;11.85;;;8.00;99.90;;;;;;4218383;28;20114;-87
2022/12/08 10:46:37;;;;;;;18.00;13.95;;;8.00;99.90;;;;;;4216686;28;20119;-88
2022/12/08 10:49:06;;;;;;;22.65;14.93;;;8.10;99.90;;;;;;4228245;28;20066;-88
2022/12/08 10:51:38;;;;;;;13.95;12.90;;;8.30;99.90;;;;;;4223974;28;20093;-88
2022/12/08 10:53:58;;;;;;;27.30;21.35;;;8.40;99.90;;;;;;4217429;28;20064;-88
2022/12/08 10:56:18;;;;;;;25.45;22.80;;;8.50;99.90;;;;;;4220620;28;20056;-87
2022/12/08 10:58:43;;;;;;;24.98;17.67;;;8.40;99.90;;;;;;4219120;28;20070;-87
2022/12/08 11:01:11;;;;;;;16.30;14.82;;;8.50;99.90;;;;;;4230573;28;20251;-85
2022/12/08 11:03:34;;;;;;;19.98;16.67;;;8.60;99.90;;;;;;4219280;28;20036;-85
2022/12/08 11:05:59;;;;;;;16.73;15.27;;;8.70;99.90;;;;;;4211757;28;20120;-83
2022/12/08 11:08:29;;;;;;;13.10;11.98;;;8.80;99.90;;;;;;4227388;28;20072;-82
2022/12/08 11:10:49;;;;;;;9.40;8.73;;;8.90;99.90;;;;;;4226848;28;20043;-82
2022/12/08 11:13:20;;;;;;;11.13;10.20;;;8.70;99.90;;;;;;4228652;28;20050;-84
2022/12/08 11:15:44;;;;;;;11.55;10.85;;;8.90;99.90;;;;;;4223505;28;20038;-84
2022/12/08 11:18:08;;;;;;;;;;;9.30;99.90;;;;;;4217931;28;20408;-84
2022/12/08 11:20:38;;;;;;;12.60;11.45;;;9.10;99.90;;;;;;4220583;28;19931;-84
2022/12/08 11:22:58;;;;;;;10.25;8.73;;;9.30;99.90;;;;;;4222108;28;20038;-84
2022/12/08 11:25:26;;;;;;;8.95;8.55;;;9.20;99.90;;;;;;4227761;28;20047;-84
2022/12/08 11:27:48;;;;;;;8.43;8.02;;;9.20;99.90;;;;;;4232980;28;20086;-84
2022/12/08 11:30:23;;;;;;;10.18;9.50;;;9.30;99.90;;;;;;4227084;28;20080;-84
2022/12/08 11:32:46;;;;;;;13.02;12.10;;;9.30;99.90;;;;;;4222637;28;20147;-84
2022/12/08 11:35:08;;;;;;;11.60;10.70;;;9.30;99.90;;;;;;4218804;28;20098;-85
2022/12/08 11:37:47;;;;;;;12.35;11.38;;;9.20;99.90;;;;;;4230373;28;20339;-84
2022/12/08 11:40:21;;;;;;;10.43;9.63;;;9.20;99.90;;;;;;4229048;28;20265;-84
2022/12/08 11:43:10;;;;;;;11.60;10.90;;;9.30;99.90;;;;;;4234483;28;20051;-84
2022/12/08 11:45:34;;;;;;;12.50;11.70;;;9.40;99.90;;;;;;4226852;28;20236;-85
2022/12/08 11:48:13;;;;;;;14.90;13.38;;;9.90;99.90;;;;;;4228207;28;20373;-85
2022/12/08 11:50:54;;;;;;;17.80;12.88;;;9.80;99.90;;;;;;4229702;28;20071;-86
2022/12/08 11:53:22;;;;;;;12.07;10.90;;;10.10;99.90;;;;;;4233850;28;20045;-86
2022/12/08 11:55:51;;;;;;;11.60;10.45;;;10.10;99.90;;;;;;4224958;28;20082;-86
2022/12/08 11:58:19;;;;;;;11.23;10.55;;;10.40;99.90;;;;;;4230575;28;20075;-86
2022/12/08 12:00:39;;;;;;;11.90;10.57;;;10.40;99.90;;;;;;4234172;28;20070;-86
2022/12/08 12:03:11;;;;;;;20.08;16.33;;;10.50;99.90;;;;;;4219356;28;20397;-86
2022/12/08 12:05:35;;;;;;;13.73;12.32;;;10.60;99.90;;;;;;4209924;28;20135;-86
2022/12/08 12:08:21;;;;;;;12.80;11.57;;;11.00;99.90;;;;;;4229855;28;20043;-87
2022/12/08 12:10:59;;;;;;;13.52;12.30;;;11.20;99.90;;;;;;4230984;28;20051;-87
2022/12/08 12:13:49;;;;;;;10.85;10.02;;;10.90;99.90;;;;;;4227198;28;20231;-87
2022/12/08 12:16:11;;;;;;;8.75;8.23;;;10.80;99.90;;;;;;4189302;28;20419;-87
2022/12/08 12:18:39;;;;;;;9.45;8.75;;;10.90;99.90;;;;;;4226699;28;20050;-87
2022/12/08 12:21:09;;;;;;;16.23;14.70;;;10.90;99.90;;;;;;4228411;28;20291;-87
2022/12/08 12:23:35;;;;;;;13.68;12.35;;;11.00;99.90;;;;;;4222120;28;20086;-86